Time;durP1;ratioP1;P1;durP2;ratioP2;P2;SDS_P1;SDS_P2;PMS_P1;PMS_P2;Temp;Humidity;BMP_temperature;BMP_pressure;BME280_temperature;BME280_humidity;BME280_pressure;Samples;Min_cycle;Max_cycle;Signal;HPM_P1;HPM_P2
2021/12/11 00:01:57;;;;;;;2.95;2.75;;;;;;;3.23;100.00;100618.53;5026628;28;20036;-79
2021/12/11 00:04:31;;;;;;;2.42;2.25;;;;;;;3.30;100.00;100603.72;5009684;28;20025;-78
2021/12/11 00:06:58;;;;;;;0.80;0.80;;;;;;;3.46;100.00;100608.56;5029074;28;20065;-79
2021/12/11 00:09:55;;;;;;;0.60;0.60;;;;;;;3.61;100.00;100608.22;5020116;28;20432;-79
2021/12/11 00:15:33;;;;;;;0.50;0.50;;;;;;;3.89;100.00;100607.47;5007590;28;20080;-79
2021/12/11 00:18:03;;;;;;;2.05;1.85;;;;;;;3.95;100.00;100604.25;5043687;28;20032;-79
2021/12/11 00:20:32;;;;;;;0.40;0.40;;;;;;;4.00;100.00;100595.03;5011736;28;20499;-79
2021/12/11 00:22:59;;;;;;;0.70;0.70;;;;;;;4.12;100.00;100602.72;5039305;28;20055;-80
2021/12/11 00:25:25;;;;;;;0.50;0.50;;;;;;;4.21;100.00;100595.75;5031257;28;20036;-79
2021/12/11 00:27:53;;;;;;;0.40;0.40;;;;;;;4.25;100.00;100588.31;5037820;28;20064;-79
2021/12/11 00:30:28;;;;;;;0.85;0.85;;;;;;;4.30;100.00;100581.59;5022886;28;20083;-80
2021/12/11 00:33:02;;;;;;;0.40;0.40;;;;;;;4.35;100.00;100578.53;5029564;28;20028;-79
2021/12/11 00:35:29;;;;;;;0.40;0.40;;;;;;;4.44;100.00;100592.81;5036764;28;20027;-80
2021/12/11 00:38:11;;;;;;;0.40;0.40;;;;;;;4.44;100.00;100590.16;5029025;28;20029;-80
2021/12/11 00:40:38;;;;;;;0.40;0.40;;;;;;;4.48;100.00;100592.41;5005903;28;21710;-79
2021/12/11 00:43:12;;;;;;;1.00;1.00;;;;;;;4.51;100.00;100588.63;5033401;28;20029;-79
2021/12/11 00:45:38;;;;;;;;;;;;;;;4.56;100.00;100586.38;5048369;28;20048;-80
2021/12/11 00:48:11;;;;;;;0.40;0.40;;;;;;;4.53;100.00;100568.84;5012689;28;19920;-79
2021/12/11 00:50:55;;;;;;;2.63;1.15;;;;;;;4.64;100.00;100567.84;5045377;28;20037;-80
2021/12/11 00:53:40;;;;;;;0.73;0.65;;;;;;;4.61;100.00;100549.50;5032622;28;20025;-80
2021/12/11 00:56:32;;;;;;;0.80;0.60;;;;;;;4.73;100.00;100561.66;5032628;28;20033;-79
2021/12/11 00:59:00;;;;;;;0.50;0.50;;;;;;;4.65;100.00;100542.06;5031322;28;20532;-80
2021/12/11 01:01:33;;;;;;;0.40;0.40;;;;;;;4.80;100.00;100557.44;5058254;28;20104;-79
2021/12/11 01:04:08;;;;;;;1.02;1.02;;;;;;;4.74;100.00;100536.72;5047803;28;20040;-78
2021/12/11 01:06:38;;;;;;;0.65;0.65;;;;;;;4.92;100.00;100554.63;5025944;28;20137;-79
2021/12/11 01:09:09;;;;;;;3.03;1.85;;;;;;;4.89;100.00;100538.91;5045942;28;20095;-79
2021/12/11 01:11:43;;;;;;;1.02;1.02;;;;;;;4.98;100.00;100548.72;5026045;28;20044;-79
2021/12/11 01:14:32;;;;;;;2.55;2.35;;;;;;;4.99;100.00;100548.56;5030866;28;20033;-79
2021/12/11 01:17:07;;;;;;;0.75;0.75;;;;;;;5.03;100.00;100549.13;5052076;28;20025;-79
2021/12/11 01:19:38;;;;;;;0.50;0.50;;;;;;;5.07;100.00;100548.69;5052319;28;20415;-80
2021/12/11 01:22:31;;;;;;;1.25;1.15;;;;;;;5.09;100.00;100559.22;5031717;28;20176;-78
2021/12/11 01:24:57;;;;;;;1.98;1.88;;;;;;;5.13;100.00;100551.75;5066342;28;20022;-78
2021/12/11 01:27:25;;;;;;;0.50;0.50;;;;;;;4.97;100.00;100517.72;5043841;28;20033;-79
2021/12/11 01:29:56;;;;;;;8.07;2.28;;;;;;;5.10;100.00;100544.03;5048890;28;20021;-80
2021/12/11 01:32:29;;;;;;;1.60;1.50;;;;;;;5.04;100.00;100548.13;5025416;28;20116;-79
2021/12/11 01:34:56;;;;;;;0.60;0.60;;;;;;;4.92;100.00;100536.81;5043312;28;20028;-79
2021/12/11 01:37:22;;;;;;;1.60;1.50;;;;;;;4.93;100.00;100535.84;5032291;28;20021;-78
2021/12/11 01:39:50;;;;;;;1.85;1.65;;;;;;;4.89;100.00;100522.94;5031922;28;20696;-79
2021/12/11 01:42:23;;;;;;;2.42;1.55;;;;;;;4.87;100.00;100523.09;5025979;28;20390;-79
2021/12/11 01:44:50;;;;;;;3.60;3.38;;;;;;;4.88;100.00;100522.09;5014460;28;20038;-79
2021/12/11 01:47:19;;;;;;;1.23;1.17;;;;;;;4.81;100.00;100521.00;5044197;28;20064;-80
2021/12/11 01:49:48;;;;;;;12.73;4.55;;;;;;;4.87;100.00;100525.75;5044654;28;20047;-79
2021/12/11 01:52:29;;;;;;;10.82;2.75;;;;;;;4.86;100.00;100524.06;5013583;28;20032;-79
2021/12/11 01:54:56;;;;;;;3.65;2.20;;;;;;;4.83;100.00;100519.88;5021590;28;20037;-79
2021/12/11 01:57:27;;;;;;;7.68;1.50;;;;;;;4.84;100.00;100518.03;5040385;28;20582;-79
2021/12/11 02:00:25;;;;;;;10.30;3.42;;;;;;;4.87;100.00;100507.13;5042903;28;20470;-78
2021/12/11 02:02:53;;;;;;;6.13;2.10;;;;;;;4.84;100.00;100494.06;5021387;28;20093;-79
2021/12/11 02:05:28;;;;;;;1.17;1.05;;;;;;;4.91;100.00;100503.16;5034062;28;20036;-80
2021/12/11 02:07:59;;;;;;;4.18;2.65;;;;;;;4.94;100.00;100507.34;5024609;28;20029;-79
2021/12/11 02:10:33;;;;;;;4.32;1.85;;;;;;;4.94;100.00;100502.03;5043927;28;20109;-79
2021/12/11 02:13:01;;;;;;;2.28;1.52;;;;;;;4.96;100.00;100506.22;5035572;28;20087;-78
2021/12/11 02:15:36;;;;;;;1.95;1.85;;;;;;;4.89;100.00;100493.63;5047520;28;20029;-79
2021/12/11 02:18:01;;;;;;;22.50;1.83;;;;;;;4.96;100.00;100506.22;5032261;28;20063;-79
2021/12/11 02:20:35;;;;;;;2.10;1.45;;;;;;;4.97;100.00;100507.06;5025079;28;20072;-80
2021/12/11 02:23:01;;;;;;;2.45;1.33;;;;;;;4.99;100.00;100502.44;5041376;28;20033;-79
2021/12/11 02:25:32;;;;;;;3.97;1.80;;;;;;;5.01;100.00;100493.31;5029531;28;20041;-79
2021/12/11 02:28:21;;;;;;;4.38;1.75;;;;;;;4.96;100.00;100470.75;5038221;28;20033;-79
2021/12/11 02:30:53;;;;;;;1.52;1.42;;;;;;;5.00;100.00;100473.00;5034983;28;20528;-78
2021/12/11 02:33:29;;;;;;;9.57;3.37;;;;;;;5.04;100.00;100466.38;5049268;28;20025;-79
2021/12/11 02:36:09;;;;;;;1.45;1.35;;;;;;;5.05;100.00;100464.53;5051962;28;20342;-79
2021/12/11 02:38:43;;;;;;;4.22;1.30;;;;;;;5.02;100.00;100460.34;5025380;28;21969;-79
2021/12/11 02:41:25;;;;;;;3.33;1.15;;;;;;;5.03;100.00;100458.53;5057659;28;20099;-80
2021/12/11 02:43:55;;;;;;;1.05;0.95;;;;;;;5.03;100.00;100456.69;5017254;28;20098;-79
2021/12/11 02:46:25;;;;;;;1.58;1.48;;;;;;;5.04;100.00;100454.88;5024954;28;20032;-80
2021/12/11 02:48:57;;;;;;;1.60;1.08;;;;;;;5.12;100.00;100462.13;5046087;28;20502;-79
2021/12/11 02:51:32;;;;;;;1.40;1.17;;;;;;;5.09;100.00;100451.78;5038715;28;20037;-79
2021/12/11 02:54:03;;;;;;;2.35;1.95;;;;;;;5.14;100.00;100465.50;5016123;28;20119;-79
2021/12/11 02:56:36;;;;;;;2.80;2.60;;;;;;;5.17;100.00;100479.34;5024404;28;20049;-79
2021/12/11 02:59:12;;;;;;;3.85;3.47;;;;;;;5.17;100.00;100471.34;5023094;28;20102;-80
2021/12/11 03:01:51;;;;;;;1.88;1.67;;;;;;;5.14;100.00;100469.00;5040195;28;20079;-80
2021/12/11 03:05:08;;;;;;;2.10;2.00;;;;;;;5.14;100.00;100477.00;5033509;28;20382;-79
2021/12/11 03:07:17;;;;;;;0.60;0.60;;;;;;;5.05;100.00;100459.19;5031363;28;20124;-79
2021/12/11 03:09:47;;;;;;;0.75;0.75;;;;;;;5.12;100.00;100456.81;5023401;28;20964;-80
2021/12/11 03:12:16;;;;;;;1.08;1.02;;;;;;;5.05;100.00;100460.06;5003100;28;20037;-80
2021/12/11 03:14:43;;;;;;;2.60;1.50;;;;;;;5.08;100.00;100458.94;5020861;28;20037;-79
2021/12/11 03:17:09;;;;;;;0.88;0.77;;;;;;;5.06;100.00;100455.56;5006551;28;20060;-81
2021/12/11 03:19:39;;;;;;;1.92;1.45;;;;;;;4.95;100.00;100440.63;5021127;28;20033;-79
2021/12/11 03:22:07;;;;;;;2.13;1.92;;;;;;;4.89;100.00;100427.88;5000882;28;20045;-80
2021/12/11 03:24:35;;;;;;;1.77;1.23;;;;;;;5.04;100.00;100439.72;5033517;28;20111;-80
2021/12/11 03:27:01;;;;;;;2.25;1.50;;;;;;;5.05;100.00;100446.75;5019970;28;20517;-80
2021/12/11 03:29:27;;;;;;;4.63;2.20;;;;;;;5.11;100.00;100444.44;5034750;28;20025;-79
2021/12/11 03:31:53;;;;;;;1.52;1.42;;;;;;;5.10;100.00;100438.28;5017571;28;20037;-79
2021/12/11 03:34:21;;;;;;;1.92;0.98;;;;;;;5.13;100.00;100445.97;5017665;28;20037;-78
2021/12/11 03:36:48;;;;;;;2.20;2.05;;;;;;;5.09;100.00;100435.78;5036558;28;20043;-80
2021/12/11 03:39:18;;;;;;;0.63;0.63;;;;;;;5.12;100.00;100444.31;5026765;28;20064;-79
2021/12/11 03:41:46;;;;;;;0.93;0.93;;;;;;;5.13;100.00;100437.16;5017739;28;20128;-79
2021/12/11 03:44:12;;;;;;;1.10;1.10;;;;;;;5.11;100.00;100439.13;5035857;28;20040;-79
2021/12/11 03:46:38;;;;;;;0.60;0.60;;;;;;;5.10;100.00;100435.63;5038531;28;20041;-80
2021/12/11 03:49:12;;;;;;;2.08;1.75;;;;;;;5.10;100.00;100430.28;5036159;28;20072;-79
2021/12/11 03:51:40;;;;;;;2.15;1.90;;;;;;;5.12;100.00;100433.66;5016683;28;20047;-78
2021/12/11 03:54:09;;;;;;;0.75;0.75;;;;;;;5.13;100.00;100432.66;5032455;28;20043;-79
2021/12/11 03:56:35;;;;;;;5.80;2.72;;;;;;;5.12;100.00;100430.16;5030976;28;20028;-80
2021/12/11 03:59:08;;;;;;;4.18;1.90;;;;;;;5.14;100.00;100426.34;5049949;28;20037;-79
2021/12/11 04:01:40;;;;;;;2.22;2.13;;;;;;;5.06;100.00;100407.59;5036559;28;20080;-80
2021/12/11 04:04:28;;;;;;;1.75;1.65;;;;;;;5.18;100.00;100422.38;5056663;28;20091;-79
2021/12/11 04:06:55;;;;;;;1.83;0.82;;;;;;;5.29;100.00;100416.88;5027949;28;20040;-80
2021/12/11 04:09:22;;;;;;;12.27;1.67;;;;;;;5.34;100.00;100402.22;5027553;28;20160;-79
2021/12/11 04:11:49;;;;;;;1.40;1.40;;;;;;;5.65;100.00;100418.72;5018923;28;20037;-79
2021/12/11 04:14:23;;;;;;;0.40;0.40;;;;;;;5.77;100.00;100379.28;5035438;28;20028;-80
2021/12/11 04:16:51;;;;;;;0.57;0.57;;;;;;;6.10;100.00;100407.97;5033793;28;20429;-79
2021/12/11 04:19:16;;;;;;;0.40;0.40;;;;;;;6.26;100.00;100407.22;5028284;28;20029;-79
2021/12/11 04:21:43;;;;;;;0.40;0.40;;;;;;;6.42;100.00;100405.66;5021665;28;20028;-80
2021/12/11 04:24:11;;;;;;;1.30;0.73;;;;;;;6.49;100.00;100399.53;5029684;28;20037;-80
2021/12/11 04:26:37;;;;;;;0.50;0.50;;;;;;;6.42;100.00;100369.13;5038749;28;20314;-79
2021/12/11 04:29:04;;;;;;;0.43;0.43;;;;;;;6.66;100.00;100388.94;5035105;28;20057;-79
2021/12/11 04:31:32;;;;;;;0.40;0.40;;;;;;;6.70;100.00;100384.97;5018231;28;21952;-79
2021/12/11 04:34:06;;;;;;;0.40;0.40;;;;;;;6.73;100.00;100371.28;5035975;28;20087;-80
2021/12/11 04:36:37;;;;;;;0.52;0.52;;;;;;;6.71;100.00;100360.75;5039268;28;20033;-80
2021/12/11 04:39:05;;;;;;;0.40;0.40;;;;;;;6.83;100.00;100378.19;5000871;28;20457;-80
2021/12/11 04:41:38;;;;;;;0.38;0.38;;;;;;;6.88;100.00;100382.19;5014888;28;20057;-80
2021/12/11 04:44:08;;;;;;;0.65;0.65;;;;;;;6.93;100.00;100380.72;5032186;28;20049;-79
2021/12/11 04:46:34;;;;;;;0.40;0.40;;;;;;;6.99;100.00;100380.06;5018544;28;20478;-79
2021/12/11 04:51:46;;;;;;;0.60;0.60;;;;;;;7.08;100.00;100378.25;5035824;28;20056;-79
2021/12/11 05:10:23;;;;;;;0.40;0.40;;;;;;;7.13;100.00;100343.00;4955506;28;20038;-79
2021/12/11 05:12:53;;;;;;;0.40;0.40;;;;;;;7.22;100.00;100348.22;5047682;28;20086;-79
2021/12/11 05:15:24;;;;;;;0.40;0.40;;;;;;;7.30;100.00;100347.38;5022441;28;20033;-80
2021/12/11 05:17:52;;;;;;;0.60;0.60;;;;;;;7.34;100.00;100346.06;5020063;28;20075;-79
2021/12/11 05:20:21;;;;;;;0.40;0.40;;;;;;;7.38;100.00;100342.06;5032456;28;20525;-79
2021/12/11 05:22:47;;;;;;;0.43;0.43;;;;;;;7.42;100.00;100343.41;5026945;28;20037;-79
2021/12/11 05:25:13;;;;;;;0.38;0.38;;;;;;;7.45;100.00;100340.38;5035639;28;20959;-79
2021/12/11 05:27:42;;;;;;;0.88;0.52;;;;;;;7.46;100.00;100333.19;5033185;28;20068;-79
2021/12/11 05:30:12;;;;;;;0.40;0.40;;;;;;;7.58;100.00;100339.91;5022718;28;20394;-80
2021/12/11 05:32:38;;;;;;;0.40;0.40;;;;;;;7.64;100.00;100335.72;5023185;28;20083;-79
2021/12/11 05:35:05;;;;;;;0.50;0.50;;;;;;;7.69;100.00;100333.38;5042749;28;20471;-79
2021/12/11 05:37:33;;;;;;;0.82;0.57;;;;;;;7.71;100.00;100339.41;5037509;28;20037;-80
2021/12/11 05:39:59;;;;;;;0.50;0.50;;;;;;;7.79;100.00;100338.56;5019208;28;20053;-79
2021/12/11 05:42:33;;;;;;;0.40;0.40;;;;;;;7.80;100.00;100333.03;5024121;28;20455;-81
2021/12/11 05:45:03;;;;;;;0.55;0.55;;;;;;;7.89;100.00;100326.69;5040062;28;20112;-79
2021/12/11 05:47:29;;;;;;;0.40;0.40;;;;;;;7.97;100.00;100323.16;5042018;28;20045;-79
2021/12/11 05:49:57;;;;;;;0.60;0.60;;;;;;;8.03;100.00;100313.59;5025430;28;20459;-79
2021/12/11 05:52:23;;;;;;;0.40;0.40;;;;;;;8.09;100.00;100326.31;5038316;28;20032;-79
2021/12/11 05:54:50;;;;;;;0.40;0.40;;;;;;;8.11;100.00;100330.47;5007793;28;20475;-80
2021/12/11 05:57:18;;;;;;;0.40;0.40;;;;;;;8.12;100.00;100325.97;5035576;28;20470;-80
2021/12/11 05:59:45;;;;;;;0.30;0.30;;;;;;;8.14;100.00;100327.47;5045795;28;20117;-80
2021/12/11 06:02:18;;;;;;;0.60;0.60;;;;;;;8.13;100.00;100311.59;5021194;28;20421;-79
2021/12/11 06:04:46;;;;;;;0.50;0.50;;;;;;;8.17;100.00;100301.34;5028190;28;20040;-79
2021/12/11 06:07:14;;;;;;;0.35;0.35;;;;;;;8.14;100.00;100294.50;5043781;28;20098;-80
2021/12/11 06:09:42;;;;;;;0.30;0.30;;;;;;;8.18;100.00;100301.19;5047982;28;20037;-79
2021/12/11 06:12:11;;;;;;;0.30;0.30;;;;;;;8.18;100.00;100297.66;5050387;28;20047;-79
2021/12/11 06:14:37;;;;;;;0.30;0.30;;;;;;;8.21;100.00;100308.06;5045157;28;20064;-80
2021/12/11 06:17:05;;;;;;;0.50;0.50;;;;;;;8.20;100.00;100309.88;5041899;28;20029;-80
2021/12/11 06:19:32;;;;;;;0.40;0.40;;;;;;;8.20;100.00;100314.41;5038965;28;20573;-80
2021/12/11 06:21:58;;;;;;;0.40;0.40;;;;;;;8.17;100.00;100302.19;5022505;28;20043;-79
2021/12/11 06:24:26;;;;;;;0.40;0.40;;;;;;;8.18;100.00;100303.88;5037312;28;20486;-80
2021/12/11 06:26:52;;;;;;;0.40;0.40;;;;;;;8.16;100.00;100311.25;5021771;28;20463;-82
2021/12/11 06:29:20;;;;;;;0.30;0.30;;;;;;;7.99;100.00;100278.31;5000454;28;20473;-81
2021/12/11 06:31:49;;;;;;;0.57;0.57;;;;;;;8.17;100.00;100315.56;5020225;28;20158;-81
2021/12/11 06:34:17;;;;;;;0.30;0.30;;;;;;;8.16;100.00;100305.88;5035995;28;21765;-79
2021/12/11 06:36:46;;;;;;;0.30;0.30;;;;;;;8.19;100.00;100302.84;5025723;28;20044;-80
2021/12/11 06:39:15;;;;;;;0.30;0.30;;;;;;;8.12;100.00;100299.19;5023521;28;20047;-80
2021/12/11 06:41:43;;;;;;;0.30;0.30;;;;;;;8.18;100.00;100301.19;5026466;28;20028;-80
2021/12/11 06:44:10;;;;;;;0.73;0.52;;;;;;;8.15;100.00;100299.69;5004252;28;20061;-81
2021/12/11 06:46:36;;;;;;;0.38;0.38;;;;;;;8.12;100.00;100293.81;5033891;28;20462;-79
2021/12/11 06:49:04;;;;;;;0.40;0.40;;;;;;;8.08;100.00;100293.34;5052913;28;20111;-79
2021/12/11 06:51:30;;;;;;;0.40;0.40;;;;;;;8.14;100.00;100305.22;5033515;28;20824;-79
2021/12/11 06:54:00;;;;;;;0.40;0.40;;;;;;;8.12;100.00;100313.44;5005875;28;20032;-79
2021/12/11 06:56:26;;;;;;;0.30;0.30;;;;;;;8.06;100.00;100302.56;5038539;28;20048;-80
2021/12/11 06:58:53;;;;;;;0.40;0.40;;;;;;;8.09;100.00;100307.56;5034179;28;20049;-79
2021/12/11 07:01:21;;;;;;;0.40;0.40;;;;;;;8.00;100.00;100297.88;5033436;28;20021;-81
2021/12/11 07:03:46;;;;;;;0.50;0.50;;;;;;;8.11;100.00;100321.63;5036906;28;20342;-80
2021/12/11 07:06:12;;;;;;;0.30;0.30;;;;;;;8.06;100.00;100310.59;5025282;28;20116;-79
2021/12/11 07:08:39;;;;;;;0.30;0.30;;;;;;;8.08;100.00;100313.94;5045131;28;20041;-79
2021/12/11 07:11:06;;;;;;;0.40;0.40;;;;;;;8.06;100.00;100319.44;5035975;28;20189;-80
2021/12/11 07:13:33;;;;;;;0.40;0.40;;;;;;;7.99;100.00;100310.44;5047909;28;20123;-78
2021/12/11 07:15:59;;;;;;;0.43;0.43;;;;;;;8.02;100.00;100311.91;5040986;28;20033;-80
2021/12/11 07:18:27;;;;;;;2.25;0.80;;;;;;;7.97;100.00;100306.28;5027514;28;20467;-79
2021/12/11 07:20:55;;;;;;;0.40;0.40;;;;;;;8.05;100.00;100319.63;5030366;28;20577;-79
2021/12/11 07:23:20;;;;;;;0.40;0.40;;;;;;;7.95;100.00;100309.09;5051123;28;20029;-80
2021/12/11 07:26:19;;;;;;;0.50;0.50;;;;;;;7.99;100.00;100317.63;5034047;28;20079;-79
2021/12/11 07:28:49;;;;;;;0.43;0.43;;;;;;;8.04;100.00;100331.34;5029624;28;20161;-79
2021/12/11 07:31:16;;;;;;;0.40;0.40;;;;;;;8.03;100.00;100322.47;5009029;28;20469;-79
2021/12/11 07:33:42;;;;;;;0.30;0.30;;;;;;;8.08;100.00;100330.00;5016772;28;20116;-81
2021/12/11 07:36:07;;;;;;;0.40;0.40;;;;;;;8.09;100.00;100337.00;5018808;28;20144;-80
2021/12/11 07:38:34;;;;;;;0.50;0.43;;;;;;;8.05;100.00;100325.81;5014131;28;20037;-79
2021/12/11 07:41:03;;;;;;;0.40;0.40;;;;;;;8.11;100.00;100335.00;5022508;28;20474;-79
2021/12/11 07:43:29;;;;;;;0.73;0.60;;;;;;;8.05;100.00;100317.78;5017458;28;20494;-79
2021/12/11 07:45:56;;;;;;;0.57;0.57;;;;;;;8.13;100.00;100333.00;5039352;28;20036;-80
2021/12/11 07:48:22;;;;;;;1.20;0.73;;;;;;;8.17;100.00;100328.97;5039156;28;20059;-79
2021/12/11 07:50:48;;;;;;;0.43;0.43;;;;;;;8.19;100.00;100326.97;5042062;28;20410;-80
2021/12/11 07:53:16;;;;;;;0.40;0.40;;;;;;;8.19;100.00;100329.63;5025890;28;20076;-79
2021/12/11 07:55:42;;;;;;;0.40;0.40;;;;;;;8.21;100.00;100324.13;5054201;28;20032;-79
2021/12/11 07:58:08;;;;;;;0.40;0.40;;;;;;;8.14;100.00;100314.06;5034502;28;20513;-80
2021/12/11 08:00:39;;;;;;;0.65;0.65;;;;;;;8.23;100.00;100320.28;5042310;28;20040;-82
2021/12/11 08:03:05;;;;;;;0.40;0.40;;;;;;;8.31;100.00;100322.91;5037760;28;20033;-80
2021/12/11 08:05:32;;;;;;;0.50;0.50;;;;;;;8.29;100.00;100306.19;5031813;28;20474;-81
2021/12/11 08:08:03;;;;;;;0.57;0.40;;;;;;;8.39;100.00;100314.06;5022740;28;20497;-80
2021/12/11 08:10:30;;;;;;;0.40;0.40;;;;;;;8.43;100.00;100311.84;5041785;28;20044;-79
2021/12/11 08:12:57;;;;;;;0.65;0.65;;;;;;;8.51;100.00;100314.50;5046666;28;20035;-80
2021/12/11 08:15:23;;;;;;;0.50;0.50;;;;;;;8.54;100.00;100308.78;5026986;28;20387;-79
2021/12/11 08:17:54;;;;;;;0.40;0.40;;;;;;;8.63;100.00;100315.81;5028923;28;20028;-81
2021/12/11 08:20:22;;;;;;;0.55;0.55;;;;;;;8.69;100.00;100317.78;5039935;28;20033;-79
2021/12/11 08:22:50;;;;;;;0.77;0.70;;;;;;;8.71;100.00;100306.91;5037047;28;20494;-79
2021/12/11 08:25:17;;;;;;;1.15;0.57;;;;;;;8.82;100.00;100305.69;5033101;28;20049;-79
2021/12/11 08:27:43;;;;;;;0.40;0.40;;;;;;;8.86;100.00;100297.09;5014115;28;20045;-79
2021/12/11 08:30:09;;;;;;;0.77;0.77;;;;;;;8.89;100.00;100296.75;5045372;28;20401;-79
2021/12/11 08:32:35;;;;;;;0.50;0.50;;;;;;;8.91;100.00;100297.38;5045517;28;20033;-79
2021/12/11 08:35:04;;;;;;;0.40;0.40;;;;;;;8.91;100.00;100288.50;5043030;28;20029;-79
2021/12/11 08:37:30;;;;;;;0.85;0.80;;;;;;;8.96;100.00;100296.88;5037175;28;20039;-80
2021/12/11 08:39:56;;;;;;;0.40;0.40;;;;;;;8.92;100.00;100287.53;5012094;28;20028;-80
2021/12/11 08:42:28;;;;;;;0.55;0.55;;;;;;;9.02;100.00;100301.50;5026117;28;20121;-80
2021/12/11 08:45:04;;;;;;;0.40;0.40;;;;;;;8.97;100.00;100287.81;5029420;28;20100;-79
2021/12/11 08:47:30;;;;;;;2.53;2.30;;;;;;;9.05;100.00;100311.91;5024108;28;20037;-79
2021/12/11 08:49:56;;;;;;;0.30;0.30;;;;;;;9.05;100.00;100309.22;5011207;28;20179;-79
2021/12/11 08:52:29;;;;;;;0.40;0.40;;;;;;;9.09;100.00;100307.84;5049728;28;20033;-78
2021/12/11 08:54:57;;;;;;;0.33;0.33;;;;;;;9.10;100.00;100311.38;5046657;28;20025;-79
2021/12/11 08:57:26;;;;;;;0.30;0.30;;;;;;;9.11;100.00;100302.31;5048519;28;20061;-79
2021/12/11 08:59:55;;;;;;;0.30;0.30;;;;;;;8.96;100.00;100278.94;5027251;28;20060;-80
2021/12/11 09:02:26;;;;;;;0.40;0.40;;;;;;;9.09;100.00;100302.50;5009529;28;20087;-80
2021/12/11 09:05:11;;;;;;;0.30;0.30;;;;;;;9.15;100.00;100311.66;5038434;28;20041;-79
2021/12/11 09:07:59;;;;;;;0.40;0.40;;;;;;;9.03;100.00;100282.56;5008070;28;20053;-78
2021/12/11 09:10:54;;;;;;;0.30;0.30;;;;;;;9.21;100.00;100303.75;5046133;28;20047;-79
2021/12/11 09:13:33;;;;;;;0.40;0.40;;;;;;;9.27;100.00;100288.78;5042456;28;20053;-81
2021/12/11 09:16:11;;;;;;;1.15;0.77;;;;;;;9.25;100.00;100280.09;5027328;28;20032;-80
2021/12/11 09:19:19;;;;;;;0.30;0.30;;;;;;;9.37;100.00;100299.28;5044021;28;20025;-82
2021/12/11 09:22:04;;;;;;;0.68;0.68;;;;;;;9.45;100.00;100285.81;4973348;28;20141;-79
2021/12/11 09:24:48;;;;;;;0.30;0.30;;;;;;;9.60;100.00;100283.97;5026824;28;20041;-80
2021/12/11 09:27:38;;;;;;;0.47;0.47;;;;;;;9.71;100.00;100285.41;5035046;28;20048;-80
2021/12/11 09:30:09;;;;;;;0.40;0.40;;;;;;;9.77;100.00;100283.88;5031496;28;20132;-80
2021/12/11 09:32:57;;;;;;;0.40;0.40;;;;;;;9.83;100.00;100275.06;5039079;28;20064;-79
2021/12/11 09:36:00;;;;;;;0.45;0.45;;;;;;;9.93;100.00;100275.66;5034348;28;20025;-78
2021/12/11 09:38:30;;;;;;;0.52;0.52;;;;;;;9.97;100.00;100279.63;5014791;28;20052;-79
2021/12/11 09:40:55;;;;;;;0.30;0.30;;;;;;;10.07;100.00;100285.56;5029638;28;20029;-80
2021/12/11 09:43:49;;;;;;;0.43;0.43;;;;;;;10.14;100.00;100274.91;5045871;28;20116;-78
2021/12/11 09:46:21;;;;;;;0.32;0.32;;;;;;;10.17;100.00;100276.41;5003974;28;20410;-82
2021/12/11 09:48:48;;;;;;;0.45;0.45;;;;;;;10.22;100.00;100268.63;5015799;28;20045;-79
2021/12/11 09:51:17;;;;;;;0.30;0.30;;;;;;;10.21;100.00;100262.41;5029551;28;20191;-78
2021/12/11 09:53:49;;;;;;;0.30;0.30;;;;;;;10.29;100.00;100275.78;5025720;28;20025;-78
2021/12/11 09:56:27;;;;;;;0.40;0.40;;;;;;;10.38;100.00;100281.91;5043174;28;20040;-78
2021/12/11 09:58:53;;;;;;;0.40;0.40;;;;;;;10.41;100.00;100281.53;5014161;28;20036;-81
2021/12/11 10:01:27;;;;;;;0.57;0.50;;;;;;;10.51;100.00;100270.50;5027959;28;20045;-78
2021/12/11 10:04:27;;;;;;;0.40;0.40;;;;;;;10.74;100.00;100264.97;5024718;28;20501;-78
2021/12/11 10:09:34;;;;;;;0.30;0.30;;;;;;;10.89;100.00;100284.59;5023659;28;20480;-78
2021/12/11 10:12:07;;;;;;;0.40;0.40;;;;;;;10.90;100.00;100280.03;5047983;28;20092;-79
2021/12/11 10:14:42;;;;;;;0.30;0.30;;;;;;;10.87;100.00;100275.88;5030754;28;20060;-78
2021/12/11 10:17:13;;;;;;;0.65;0.52;;;;;;;10.92;100.00;100299.50;5014469;28;20271;-79
2021/12/11 10:19:41;;;;;;;0.40;0.40;;;;;;;10.88;100.00;100298.25;5017353;28;20482;-79
2021/12/11 10:22:12;;;;;;;0.30;0.30;;;;;;;10.83;100.00;100312.25;5034647;28;20032;-79
2021/12/11 10:24:41;;;;;;;0.30;0.30;;;;;;;10.53;100.00;100273.81;5015811;28;20068;-78
2021/12/11 10:27:17;;;;;;;0.40;0.40;;;;;;;10.83;100.00;100316.81;5030552;28;20060;-80
2021/12/11 10:29:45;;;;;;;;;;;;;;;10.83;100.00;100312.25;5047513;28;20044;-80
2021/12/11 10:32:17;;;;;;;0.50;0.50;;;;;;;10.89;100.00;100316.88;5023181;28;19966;-79
2021/12/11 10:34:45;;;;;;;0.43;0.40;;;;;;;11.03;100.00;100295.50;5030700;28;20045;-79
2021/12/11 10:37:18;;;;;;;0.40;0.40;;;;;;;11.21;100.00;100320.13;5034066;28;20136;-79
2021/12/11 10:39:52;;;;;;;1.95;1.10;;;;;;;11.24;100.00;100314.34;5044823;28;20025;-79
2021/12/11 10:42:17;;;;;;;;;;;;;;;11.34;100.00;100324.81;5040008;28;20029;-80
2021/12/11 10:44:50;;;;;;;0.60;0.60;;;;;;;11.41;100.00;100318.47;5045392;28;20019;-80
2021/12/11 10:47:21;;;;;;;0.77;0.77;;;;;;;11.50;100.00;100331.81;5029807;28;20402;-80
2021/12/11 10:49:49;;;;;;;0.38;0.38;;;;;;;11.52;100.00;100321.69;5024501;28;20122;-80
2021/12/11 10:52:23;;;;;;;0.70;0.60;;;;;;;11.61;100.00;100312.44;5019817;28;21121;-80
2021/12/11 10:54:49;;;;;;;0.40;0.40;;;;;;;11.58;100.00;100307.44;5015714;28;20086;-80
2021/12/11 10:57:16;;;;;;;0.40;0.40;;;;;;;11.73;100.00;100320.84;5019545;28;20056;-80
2021/12/11 10:59:47;;;;;;;0.47;0.47;;;;;;;11.74;100.00;100326.03;5023905;28;20032;-81
2021/12/11 11:02:26;;;;;;;0.63;0.63;;;;;;;11.74;100.00;100331.41;5024506;28;20037;-79
2021/12/11 11:05:10;;;;;;;0.93;0.60;;;;;;;11.74;100.00;100326.03;5016493;28;20083;-79
2021/12/11 11:07:36;;;;;;;1.02;0.80;;;;;;;11.74;100.00;100325.19;5015358;28;20486;-78
2021/12/11 11:10:07;;;;;;;0.40;0.40;;;;;;;11.43;100.00;100275.19;5029603;28;20076;-79
2021/12/11 11:12:33;;;;;;;0.30;0.30;;;;;;;11.66;100.00;100324.28;5012853;28;20033;-79
2021/12/11 11:14:59;;;;;;;0.30;0.30;;;;;;;11.63;100.00;100324.69;5031932;28;20036;-81
2021/12/11 11:17:28;;;;;;;1.20;0.75;;;;;;;11.63;100.00;100324.69;5019134;28;20557;-80
2021/12/11 11:19:56;;;;;;;0.73;0.73;;;;;;;11.66;100.00;100318.06;5028655;28;20045;-80
2021/12/11 11:22:30;;;;;;;0.30;0.30;;;;;;;11.72;100.00;100313.78;5011759;28;20064;-79
2021/12/11 11:25:09;;;;;;;0.40;0.40;;;;;;;11.76;100.00;100315.06;5015019;28;20076;-79
2021/12/11 11:27:37;;;;;;;0.40;0.40;;;;;;;11.62;100.00;100279.13;5039806;28;20548;-81
2021/12/11 11:30:07;;;;;;;0.50;0.50;;;;;;;11.84;100.00;100296.88;5048571;28;20095;-80
2021/12/11 11:32:32;;;;;;;0.30;0.30;;;;;;;11.85;100.00;100306.66;5042077;28;20047;-80
2021/12/11 11:35:02;;;;;;;0.40;0.40;;;;;;;11.84;100.00;100304.16;5027390;28;20037;-80
2021/12/11 11:37:32;;;;;;;0.30;0.30;;;;;;;11.83;100.00;100308.72;5028555;28;20044;-80
2021/12/11 11:39:58;;;;;;;0.60;0.60;;;;;;;11.76;100.00;100302.41;5013907;28;20036;-81
2021/12/11 11:42:24;;;;;;;0.30;0.30;;;;;;;11.79;100.00;100312.81;5024211;28;20070;-80
2021/12/11 11:44:50;;;;;;;0.47;0.47;;;;;;;11.77;100.00;100314.03;5026416;28;20029;-80
2021/12/11 11:47:18;;;;;;;0.85;0.60;;;;;;;11.77;100.00;100317.53;5037312;28;20025;-80
2021/12/11 11:49:44;;;;;;;1.98;0.50;;;;;;;11.81;100.00;100315.31;5009334;28;20540;-81
2021/12/11 11:52:14;;;;;;;0.30;0.30;;;;;;;11.82;100.00;100315.09;5012883;28;20068;-80
2021/12/11 11:54:45;;;;;;;1.33;0.32;;;;;;;11.81;100.00;100313.44;5025608;28;20080;-80
2021/12/11 11:57:23;;;;;;;0.40;0.40;;;;;;;11.86;100.00;100312.91;4995996;28;20044;-80
2021/12/11 11:59:52;;;;;;;3.13;1.33;;;;;;;11.92;100.00;100316.66;5032032;28;20037;-80
2021/12/11 12:02:21;;;;;;;1.00;0.80;;;;;;;11.94;100.00;100320.84;5044609;28;20062;-80
2021/12/11 12:04:50;;;;;;;0.50;0.50;;;;;;;11.97;100.00;100317.75;5020249;28;20080;-81
2021/12/11 12:07:24;;;;;;;0.63;0.63;;;;;;;11.98;100.00;100311.31;5036444;28;20055;-81